Flight Track Log - Related Links

Times and Time Zones

All times are in EDT time to prevent confusion due to time zone crossing. See the DAL268 flight status page for this flight to view local times or setup timezone preferences in your user account.

Time Position Orientation Groundspeed Altitude Reporting Facility
EDT Latitude Longitude Course Direction KTS MPH feet Rate Location/Type
Mon 02:28:43 PM 37.6360 -122.3690 32° Northeast 165 190 700  Level FlightAware ADS-B
Mon 02:28:53 PM 37.6418 -122.3630 39° Northeast 169 194 1,100 2,087 Climbing FlightAware ADS-B
Mon 02:29:06 PM 37.6489 -122.3530 48° Northeast 186 214 1,500 2,000 Climbing FlightAware ADS-B
Mon 02:29:23 PM 37.6589 -122.3390 48° Northeast 196 226 2,100 1,818 Climbing FlightAware ADS-B
Mon 02:29:39 PM 37.6695 -122.3240 48° Northeast 220 253 2,500 2,129 Climbing FlightAware ADS-B
Mon 02:29:54 PM 37.6806 -122.3100 45° Northeast 229 264 3,200 2,323 Climbing FlightAware ADS-B
Mon 02:30:10 PM 37.6923 -122.2940 47° Northeast 246 283 3,700 2,057 Climbing FlightAware ADS-B
Mon 02:30:29 PM 37.7072 -122.2720 49° Northeast 264 304 4,400 2,500 Climbing FlightAware ADS-B
Mon 02:30:46 PM 37.7216 -122.2520 48° Northeast 270 311 5,200 3,176 Climbing FlightAware ADS-B
Mon 02:31:03 PM 37.7361 -122.2310 49° Northeast 272 313 6,200 3,150 Climbing FlightAware ADS-B
Mon 02:31:26 PM 37.7549 -122.2050 48° Northeast 279 321 7,300 2,786 Climbing FlightAware ADS-B
Mon 02:31:31 PM 37.7595 -122.1990 46° Northeast 280 322 7,500 2,800 Climbing FlightAware ADS-B
Mon 02:31:41 PM 37.7702 -122.1870 42° Northeast 284 327 8,000 3,273 Climbing FlightAware ADS-B
Mon 02:31:53 PM 37.7830 -122.1750 37° Northeast 284 327 8,700 3,000 Climbing FlightAware ADS-B
Mon 02:32:11 PM 37.8013 -122.1580 36° Northeast 285 328 9,500 2,375 Climbing FlightAware ADS-B
Mon 02:32:41 PM 37.8349 -122.1260 37° Northeast 309 356 10,600 1,672 Climbing FlightAware ADS-B
Mon 02:33:12 PM 37.8722 -122.0910 37° Northeast 340 391 11,200 1,279 Climbing FlightAware ADS-B
Mon 02:33:42 PM 37.9131 -122.0530 36° Northeast 372 428 11,900 1,935 Climbing FlightAware ADS-B
Mon 02:34:14 PM 37.9574 -122.0130 35° Northeast 379 436 13,200 2,531 Climbing FlightAware ADS-B
Mon 02:34:46 PM 38.0039 -121.9700 36° Northeast 388 447 14,600 2,581 Climbing FlightAware ADS-B
Mon 02:35:40 PM 38.0823 -121.8970 36° Northeast 393 452 16,900 2,455 Climbing FlightAware ADS-B
Mon 02:36:14 PM 38.1330 -121.8500 36° Northeast 399 459 18,200 2,229 Climbing FlightAware ADS-B
Mon 02:36:50 PM 38.1870 -121.8000 36° Northeast 403 464 19,500 2,055 Climbing FlightAware ADS-B
Mon 02:37:27 PM 38.2420 -121.7480 37° Northeast 410 472 20,700 1,765 Climbing FlightAware ADS-B
Mon 02:37:58 PM 38.2900 -121.7030 36° Northeast 421 484 21,500 1,701 Climbing FlightAware ADS-B
Mon 02:38:34 PM 38.3480 -121.6480 37° Northeast 429 494 22,600 1,913 Climbing FlightAware ADS-B
Mon 02:39:07 PM 38.4000 -121.6000 36° Northeast 431 496 23,700 1,800 Climbing FlightAware ADS-B
Mon 02:39:44 PM 38.4570 -121.5350 42° Northeast 437 503 24,700 1,562 Climbing FlightAware ADS-B
Mon 02:40:20 PM 38.5010 -121.4630 52° Northeast 442 509 25,600 1,417 Climbing FlightAware ADS-B
Mon 02:40:56 PM 38.5450 -121.3870 53° Northeast 448 516 26,400 1,941 Climbing FlightAware ADS-B
Mon 02:41:28 PM 38.5840 -121.3190 54° Northeast 437 503 27,800 1,853 Climbing FlightAware ADS-B
Mon 02:42:04 PM 38.6270 -121.2430 54° Northeast 445 512 28,500 1,286 Climbing FlightAware ADS-B
Mon 02:42:38 PM 38.6690 -121.1710 53° Northeast 449 517 29,300 1,739 Climbing FlightAware ADS-B
Mon 02:43:13 PM 38.7110 -121.0980 54° Northeast 442 509 30,500 1,750 Climbing FlightAware ADS-B
Mon 02:43:50 PM 38.7570 -121.0180 54° Northeast 442 509 31,400 1,521 Climbing FlightAware ADS-B
Mon 02:44:24 PM 38.7980 -120.9470 53° Northeast 441 507 32,300 1,455 Climbing FlightAware ADS-B
Mon 02:44:56 PM 38.8360 -120.8800 54° Northeast 442 509 33,000 1,333 Climbing FlightAware ADS-B
Mon 02:45:36 PM 38.8860 -120.7940 53° Northeast 439 505 33,900 973 Climbing FlightAware ADS-B
Mon 02:46:10 PM 38.9270 -120.7230 53° Northeast 450 518 34,200 585 Climbing FlightAware ADS-B
Mon 02:46:17 PM 38.9351 -120.7086 54° Northeast 453 521 34,300 324 Climbing FlightAware ADS-B
Mon 02:46:47 PM 38.9704 -120.6471 54° Northeast 465 535 34,400 667 Climbing FlightAware ADS-B
Mon 02:47:20 PM 39.0150 -120.5690 54° Northeast 464 534 35,000 1,333 Climbing FlightAware ADS-B
Mon 02:47:41 PM 39.0403 -120.5254 53° Northeast 460 529 35,600 1,200 Climbing FlightAware ADS-B
Mon 02:48:20 PM 39.0915 -120.4357 54° Northeast 461 531 36,200 900 Climbing FlightAware ADS-B
Mon 02:49:01 PM 39.1413 -120.3481 54° Northeast 461 531 36,800 600 Climbing FlightAware ADS-B
Mon 02:49:40 PM 39.1922 -120.2588 54° Northeast 460 529 37,000 167 Climbing FlightAware ADS-B
Mon 02:50:13 PM 39.2326 -120.1874 54° Northeast 459 528 37,000  Level FlightAware ADS-B
Mon 02:50:52 PM 39.2823 -120.0995 54° Northeast 459 528 37,000  Level FlightAware ADS-B
Mon 02:51:24 PM 39.3221 -120.0289 54° Northeast 458 527 37,000  Level FlightAware ADS-B
Mon 02:51:54 PM 39.3583 -119.9648 54° Northeast 458 527 37,000  Level FlightAware ADS-B
Mon 02:52:40 PM 39.4154 -119.8628 54° Northeast 458 527 37,000  Level FlightAware ADS-B
Mon 02:53:11 PM 39.4523 -119.7970 54° Northeast 458 527 37,000  Level FlightAware ADS-B
Mon 02:53:41 PM 39.4911 -119.7275 54° Northeast 459 528 37,000  Level FlightAware ADS-B
Mon 02:54:17 PM 39.5354 -119.6482 54° Northeast 459 528 37,000  Level FlightAware ADS-B
Mon 02:54:57 PM 39.5859 -119.5577 54° Northeast 461 531 37,000  Level FlightAware ADS-B
Mon 02:55:33 PM 39.6298 -119.4785 54° Northeast 462 532 37,000  Level FlightAware ADS-B
Mon 02:56:12 PM 39.6798 -119.3883 54° Northeast 462 532 37,000  Level FlightAware ADS-B
Mon 02:56:44 PM 39.7196 -119.3161 54° Northeast 462 532 37,000  Level FlightAware ADS-B
Mon 02:57:15 PM 39.7567 -119.2490 54° Northeast 462 532 37,000  Level FlightAware ADS-B
Mon 02:57:45 PM 39.7938 -119.1815 54° Northeast 463 533 37,000  Level FlightAware ADS-B
Mon 02:58:15 PM 39.8318 -119.1125 54° Northeast 463 533 37,000  Level FlightAware ADS-B
Mon 02:58:45 PM 39.8682 -119.0457 55° Northeast 463 533 37,000  Level FlightAware ADS-B
Mon 02:59:17 PM 39.9088 -118.9717 54° Northeast 463 533 37,000  Level FlightAware ADS-B
Mon 02:59:56 PM 39.9581 -118.8815 55° Northeast 463 533 37,000  Level FlightAware ADS-B
Mon 03:00:26 PM 39.9949 -118.8140 55° Northeast 462 532 37,000  Level FlightAware ADS-B
Mon 03:00:58 PM 40.0343 -118.7415 55° Northeast 462 532 37,000  Level FlightAware ADS-B
Mon 03:01:28 PM 40.0710 -118.6738 55° Northeast 461 531 37,000  Level FlightAware ADS-B
Mon 03:02:01 PM 40.1101 -118.5984 56° Northeast 462 532 37,000  Level FlightAware ADS-B
Mon 03:02:40 PM 40.1453 -118.4983 65° Northeast 464 534 37,000  Level FlightAware ADS-B
Mon 03:03:25 PM 40.1732 -118.3974 70° East 465 535 37,000  Level FlightAware ADS-B
Mon 03:04:05 PM 40.2059 -118.2759 71° East 466 536 37,000  Level FlightAware ADS-B
Mon 03:04:45 PM 40.2347 -118.1699 70° East 467 537 37,000  Level FlightAware ADS-B
Mon 03:05:24 PM 40.2632 -118.0646 70° East 467 537 37,000  Level FlightAware ADS-B
Mon 03:06:00 PM 40.2894 -117.9681 70° East 468 539 37,000  Level FlightAware ADS-B
Mon 03:06:31 PM 40.3106 -117.8899 70° East 469 540 37,000  Level FlightAware ADS-B
Mon 03:07:03 PM 40.3270 -117.8320 70° East 467 537 37,000  Level FlightAware ADS-B
Mon 03:07:19 PM 40.3445 -117.7646 71° East 470 541 37,000  Level FlightAware ADS-B
Mon 03:07:54 PM 40.3717 -117.6631 71° East 469 540 37,000  Level FlightAware ADS-B
Mon 03:08:36 PM 40.4018 -117.5503 71° East 470 541 37,000  Level FlightAware ADS-B
Mon 03:09:06 PM 40.4220 -117.4749 71° East 470 541 37,000  Level FlightAware ADS-B
Mon 03:09:57 PM 40.4370 -117.4380 62° Northeast 467 537 37,000  Level FlightAware ADS-B
Mon 03:10:33 PM 40.4590 -117.3560 71° East 467 537 37,000  Level FlightAware ADS-B
Mon 03:11:09 PM 40.4820 -117.2750 70° East 467 537 37,000  Level FlightAware ADS-B
Mon 03:11:40 PM 40.5010 -117.2040 71° East 467 537 37,000  Level FlightAware ADS-B
Mon 03:12:16 PM 40.5240 -117.1220 70° East 467 537 37,000  Level FlightAware ADS-B
Mon 03:12:53 PM 40.5470 -117.0380 70° East 467 537 37,000  Level FlightAware ADS-B
Mon 03:13:39 PM 40.5760 -116.9340 70° East 467 537 37,000  Level FlightAware ADS-B
Mon 03:14:15 PM 40.5990 -116.8520 70° East 467 537 37,000  Level FlightAware ADS-B
Mon 03:14:52 PM 40.6220 -116.7680 70° East 467 537 37,000  Level FlightAware ADS-B
Mon 03:15:28 PM 40.6440 -116.6860 71° East 467 537 37,000  Level FlightAware ADS-B
Mon 03:17:39 PM 40.7958 -116.0820 71° East 474 545 37,000  Level FlightAware ADS-B
Mon 03:18:10 PM 40.8180 -115.9990 71° East 474 545 37,000  Level FlightAware ADS-B
Mon 03:18:41 PM 40.8405 -115.9140 71° East 474 545 37,000  Level FlightAware ADS-B
Mon 03:19:11 PM 40.8624 -115.8320 71° East 475 547 37,000  Level FlightAware ADS-B
Mon 03:19:54 PM 40.8930 -115.7170 71° East 471 542 37,000  Level FlightAware ADS-B
Mon 03:20:29 PM 40.9180 -115.6220 71° East 472 543 37,000  Level FlightAware ADS-B
Mon 03:20:49 PM 40.9330 -115.5648 71° East 476 548 37,000  Level FlightAware ADS-B
Mon 03:22:27 PM 41.0034 -115.2950 71° East 476 548 37,000  Level FlightAware ADS-B
Mon 03:22:58 PM 41.0256 -115.2100 71° East 477 549 37,000  Level FlightAware ADS-B
Mon 03:23:28 PM 41.0470 -115.1270 71° East 477 549 37,000  Level FlightAware ADS-B
Mon 03:23:58 PM 41.0690 -115.0430 71° East 477 549 37,000  Level FlightAware ADS-B
Mon 03:24:42 PM 41.1001 -114.9210 71° East 477 549 37,000  Level FlightAware ADS-B
Mon 03:25:15 PM 41.1234 -114.8300 71° East 477 549 37,000  Level FlightAware ADS-B
Mon 03:25:48 PM 41.1464 -114.7410 71° East 478 550 37,000  Level FlightAware ADS-B
Mon 03:26:18 PM 41.1675 -114.6570 72° East 478 550 37,000  Level FlightAware ADS-B
Mon 03:26:48 PM 41.1889 -114.5730 71° East 478 550 37,000  Level FlightAware ADS-B
Mon 03:27:19 PM 41.2103 -114.4880 71° East 478 550 37,000  Level FlightAware ADS-B
Mon 03:27:50 PM 41.2316 -114.4030 72° East 478 550 37,000  Level FlightAware ADS-B
Mon 03:28:20 PM 41.2528 -114.3190 71° East 477 549 37,000  Level FlightAware ADS-B
Mon 03:28:55 PM 41.2768 -114.2220 72° East 477 549 37,000  Level FlightAware ADS-B
Mon 03:29:26 PM 41.2980 -114.1370 72° East 477 549 37,000  Level FlightAware ADS-B
Mon 03:29:49 PM 41.3145 -114.0700 72° East 478 550 37,000  Level FlightAware ADS-B
Mon 03:30:19 PM 41.3353 -113.9860 72° East 478 550 37,000  Level FlightAware ADS-B
Mon 03:30:47 PM 41.3545 -113.9080 72° East 478 550 37,000  Level FlightAware ADS-B
Mon 03:30:51 PM 41.3559 -113.9017 73° East 479 551 37,000  Level FlightAware ADS-B
Mon 03:31:00 PM 41.3618 -113.8740 74° East 479 551 37,000  Level FlightAware ADS-B
Mon 03:31:10 PM 41.3671 -113.8450 76° East 481 554 37,000  Level FlightAware ADS-B
Mon 03:31:24 PM 41.3723 -113.8046 80° East 483 556 37,000  Level FlightAware ADS-B
Mon 03:31:31 PM 41.3746 -113.7820 82° East 484 557 37,000  Level FlightAware ADS-B
Mon 03:32:03 PM 41.3821 -113.6860 84° East 485 558 37,000  Level FlightAware ADS-B
Mon 03:32:34 PM 41.3881 -113.5950 85° East 486 559 37,000  Level FlightAware ADS-B
Mon 03:32:39 PM 41.3892 -113.5800 85° East 486 559 37,000  Level FlightAware ADS-B
Mon 03:33:04 PM 41.3941 -113.5050 85° East 486 559 37,000  Level FlightAware ADS-B
Mon 03:33:09 PM 41.3944 -113.4994 85° East 486 559 37,000  Level FlightAware ADS-B
Mon 03:33:34 PM 41.4000 -113.4160 85° East 487 560 37,000  Level FlightAware ADS-B
Mon 03:33:46 PM 41.4024 -113.3807 85° East 487 560 37,000  Level FlightAware ADS-B
Mon 03:34:05 PM 41.4061 -113.3240 85° East 487 560 37,000  Level FlightAware ADS-B
Mon 03:34:31 PM 41.4106 -113.2551 85° East 487 560 37,000  Level FlightAware ADS-B
Mon 03:34:36 PM 41.4121 -113.2320 85° East 488 562 37,000  Level FlightAware ADS-B
Mon 03:35:01 PM 41.4170 -113.1601 85° East 488 562 37,000  Level FlightAware ADS-B
Mon 03:35:08 PM 41.4183 -113.1380 85° East 488 562 37,000  Level FlightAware ADS-B
Mon 03:35:34 PM 41.4235 -113.0592 85° East 488 562 37,000  Level FlightAware ADS-B
Mon 03:35:38 PM 41.4243 -113.0460 85° East 488 562 37,000  Level FlightAware ADS-B
Mon 03:36:04 PM 41.4293 -112.9684 85° East 488 562 37,000  Level FlightAware ADS-B
Mon 03:36:10 PM 41.4303 -112.9530 85° East 488 562 37,000  Level FlightAware ADS-B
Mon 03:36:36 PM 41.4351 -112.8748 85° East 488 562 37,000  Level FlightAware ADS-B
Mon 03:36:49 PM 41.4375 -112.8350 85° East 488 562 37,000  Level FlightAware ADS-B
Mon 03:37:06 PM 41.4406 -112.7849 85° East 488 562 37,000  Level FlightAware ADS-B
Mon 03:37:19 PM 41.4432 -112.7440 85° East 488 562 37,000  Level FlightAware ADS-B
Mon 03:37:38 PM 41.4463 -112.6917 85° East 489 563 37,000  Level FlightAware ADS-B
Mon 03:37:50 PM 41.4487 -112.6530 85° East 489 563 37,000  Level FlightAware ADS-B
Mon 03:38:17 PM 41.4535 -112.5720 85° East 489 563 37,000  Level FlightAware ADS-B
Mon 03:38:24 PM 41.4547 -112.5520 85° East 488 562 37,000  Level FlightAware ADS-B
Mon 03:38:48 PM 41.4590 -112.4789 85° East 489 563 37,000  Level FlightAware ADS-B
Mon 03:38:54 PM 41.4602 -112.4600 85° East 488 562 37,000  Level FlightAware ADS-B
Mon 03:39:18 PM 41.4643 -112.3892 86° East 489 563 37,000  Level FlightAware ADS-B
Mon 03:39:35 PM 41.4673 -112.3380 86° East 489 563 37,000  Level FlightAware ADS-B
Mon 03:39:50 PM 41.4697 -112.2938 86° East 489 563 37,000  Level FlightAware ADS-B
Mon 03:40:06 PM 41.4724 -112.2460 86° East 490 564 37,000  Level FlightAware ADS-B
Mon 03:40:21 PM 41.4746 -112.2063 86° East 490 564 37,000  Level FlightAware ADS-B
Mon 03:40:36 PM 41.4774 -112.1540 86° East 490 564 37,000  Level FlightAware ADS-B
Mon 03:40:53 PM 41.4801 -112.1061 86° East 490 564 37,000  Level FlightAware ADS-B
Mon 03:41:08 PM 41.4827 -112.0580 86° East 490 564 37,000  Level FlightAware ADS-B
Mon 03:41:41 PM 41.4880 -111.9590 86° East 490 564 37,000  Level FlightAware ADS-B
Mon 03:41:45 PM 41.4887 -111.9473 85° East 490 564 37,000  Level FlightAware ADS-B
Mon 03:42:13 PM 41.4932 -111.8640 86° East 490 564 37,000  Level FlightAware ADS-B
Mon 03:42:16 PM 41.4935 -111.8548 88° East 490 564 37,000  Level FlightAware ADS-B
Mon 03:42:46 PM 41.4983 -111.7650 86° East 490 564 37,000  Level FlightAware ADS-B
Mon 03:42:48 PM 41.4985 -111.7605 87° East 490 564 37,000  Level FlightAware ADS-B
Mon 03:43:18 PM 41.5031 -111.6690 86° East 490 564 37,000  Level FlightAware ADS-B
Mon 03:43:48 PM 41.5077 -111.5780 86° East 491 565 37,000  Level FlightAware ADS-B
Mon 03:44:18 PM 41.5122 -111.4870 86° East 491 565 37,000  Level FlightAware ADS-B
Mon 03:44:29 PM 41.5137 -111.4543 86° East 491 565 37,000  Level FlightAware ADS-B
Mon 03:44:49 PM 41.5167 -111.3940 86° East 491 565 37,000  Level FlightAware ADS-B
Mon 03:45:01 PM 41.5179 -111.3669 87° East 491 565 37,000  Level FlightAware ADS-B
Mon 03:45:19 PM 41.5210 -111.3020 86° East 491 565 37,000  Level FlightAware ADS-B
Mon 03:45:50 PM 41.5252 -111.2110 86° East 491 565 37,000  Level FlightAware ADS-B
Mon 03:46:22 PM 41.5297 -111.1130 86° East 491 565 37,000  Level FlightAware ADS-B
Mon 03:46:52 PM 41.5339 -111.0220 86° East 490 564 37,000  Level FlightAware ADS-B
Mon 03:47:24 PM 41.5380 -110.9300 87° East 490 564 37,000  Level FlightAware ADS-B
Mon 03:47:33 PM 41.5392 -110.8980 87° East 491 565 37,000  Level FlightAware ADS-B
Mon 03:48:04 PM 41.5431 -110.8070 87° East 492 566 37,000  Level FlightAware ADS-B
Mon 03:49:08 PM 41.5510 -110.6130 87° East 490 564 37,000  Level FlightAware ADS-B
Mon 03:49:44 PM 41.5550 -110.5050 87° East 490 564 37,000  Level FlightAware ADS-B
Mon 03:50:16 PM 41.5590 -110.4090 87° East 490 564 37,000  Level FlightAware ADS-B
Mon 03:50:50 PM 41.5630 -110.3060 87° East 491 565 37,000  Level FlightAware ADS-B
Mon 03:51:22 PM 41.5650 -110.2440 88° East 492 566 37,000  Level FlightAware ADS-B
Mon 03:52:00 PM 41.5690 -110.1450 87° East 492 566 37,000  Level FlightAware ADS-B
Mon 03:52:38 PM 41.5730 -110.0470 87° East 492 566 37,000  Level FlightAware ADS-B
Mon 03:53:14 PM 41.5780 -109.8700 88° East 492 566 37,000  Level FlightAware ADS-B
Mon 03:53:47 PM 41.5820 -109.7690 87° East 492 566 37,000  Level FlightAware ADS-B
Mon 03:54:19 PM 41.5850 -109.6710 88° East 492 566 37,000  Level FlightAware ADS-B
Mon 03:54:59 PM 41.5880 -109.5500 88° East 493 567 37,000  Level FlightAware ADS-B
Mon 03:55:32 PM 41.5910 -109.4520 88° East 494 568 37,000  Level FlightAware ADS-B
Mon 03:56:08 PM 41.5940 -109.3430 88° East 495 570 37,000  Level FlightAware ADS-B
Mon 03:56:44 PM 41.5970 -109.2320 88° East 496 571 37,000  Level FlightAware ADS-B
Mon 03:57:19 PM 41.6000 -109.1260 88° East 497 572 37,000  Level FlightAware ADS-B
Mon 03:57:49 PM 41.6040 -109.0330 87° East 495 570 37,000  Level FlightAware ADS-B
Mon 03:58:27 PM 41.6140 -108.9270 83° East 492 566 37,000  Level FlightAware ADS-B
Mon 03:59:03 PM 41.6280 -108.8090 81° East 492 566 37,000  Level FlightAware ADS-B
Mon 03:59:38 PM 41.6400 -108.7060 81° East 492 566 37,000  Level FlightAware ADS-B
Mon 04:00:13 PM 41.6530 -108.5990 81° East 491 565 37,000  Level FlightAware ADS-B
Mon 04:00:45 PM 41.6640 -108.5040 81° East 491 565 37,000  Level FlightAware ADS-B
Mon 04:01:21 PM 41.6760 -108.3970 81° East 491 565 37,000  Level FlightAware ADS-B
Mon 04:01:54 PM 41.6880 -108.2980 81° East 492 566 37,000  Level FlightAware ADS-B
Mon 04:02:32 PM 41.7010 -108.1850 81° East 491 565 37,000  Level FlightAware ADS-B
Mon 04:03:07 PM 41.7130 -108.0790 81° East 491 565 37,000  Level FlightAware ADS-B
Mon 04:03:43 PM 41.7250 -107.9710 81° East 491 565 37,000  Level FlightAware ADS-B
Mon 04:04:16 PM 41.7350 -107.8730 82° East 492 566 37,000  Level FlightAware ADS-B
Mon 04:04:51 PM 41.7470 -107.7670 81° East 491 565 37,000  Level FlightAware ADS-B
Mon 04:05:23 PM 41.7580 -107.6690 81° East 491 565 37,000  Level FlightAware ADS-B
Mon 04:06:02 PM 41.7690 -107.5690 82° East 491 565 37,000  Level FlightAware ADS-B
Mon 04:06:37 PM 41.7750 -107.4460 86° East 491 565 37,000  Level FlightAware ADS-B
Mon 04:07:14 PM 41.7810 -107.3510 85° East 491 565 37,000  Level FlightAware ADS-B
Mon 04:07:58 PM 41.7890 -107.2050 86° East 489 563 37,000  Level FlightAware ADS-B
Mon 04:08:38 PM 41.7960 -107.1020 85° East 489 563 37,000  Level FlightAware ADS-B
Mon 04:09:14 PM 41.8020 -107.0100 85° East 489 563 37,000  Level FlightAware ADS-B
Mon 04:09:50 PM 41.8080 -106.9170 85° East 489 563 37,000  Level FlightAware ADS-B
Mon 04:10:26 PM 41.8140 -106.8240 85° East 489 563 37,000  Level FlightAware ADS-B
Mon 04:11:03 PM 41.8200 -106.7290 85° East 489 563 37,000  Level FlightAware ADS-B
Mon 04:11:42 PM 41.8270 -106.6290 85° East 489 563 37,000  Level FlightAware ADS-B
Mon 04:12:19 PM 41.8330 -106.5340 85° East 489 563 37,000 667 Level FlightAware ADS-B
Mon 04:12:54 PM 41.8380 -106.3130 88° East 496 571 37,800 1,167 Climbing FlightAware ADS-B
Mon 04:13:31 PM 41.8440 -106.1970 86° East 495 570 38,400 930 Climbing FlightAware ADS-B
Mon 04:14:05 PM 41.8490 -106.0940 86° East 493 567 38,900 514 Climbing FlightAware ADS-B
Mon 04:14:41 PM 41.8560 -105.9840 85° East 490 564 39,000 83 Climbing FlightAware ADS-B
Mon 04:15:17 PM 41.8680 -105.8780 81° East 489 563 39,000  Level FlightAware ADS-B
Mon 04:15:49 PM 41.8790 -105.7830 81° East 489 563 39,000  Level FlightAware ADS-B
Mon 04:16:27 PM 41.8920 -105.6680 81° East 491 565 39,000  Level FlightAware ADS-B
Mon 04:17:22 PM 41.9100 -105.5130 81° East 491 565 39,000  Level FlightAware ADS-B
Mon 04:17:57 PM 41.9230 -105.3940 82° East 490 564 39,000  Level FlightAware ADS-B
Mon 04:18:32 PM 41.9350 -105.2880 81° East 491 565 39,000  Level FlightAware ADS-B
Mon 04:19:03 PM 41.9450 -105.1970 82° East 493 567 39,000  Level FlightAware ADS-B
Mon 04:19:39 PM 41.9550 -105.1020 82° East 495 570 39,000  Level FlightAware ADS-B
Mon 04:20:33 PM 41.9740 -104.9280 82° East 499 574 39,000  Level FlightAware ADS-B
Mon 04:21:27 PM 41.9910 -104.7740 82° East 499 574 39,000  Level FlightAware ADS-B
Mon 04:22:03 PM 42.0040 -104.6470 82° East 500 575 39,000  Level FlightAware ADS-B
Mon 04:22:35 PM 42.0140 -104.5490 82° East 501 577 39,000  Level FlightAware ADS-B
Mon 04:23:06 PM 42.0240 -104.4500 82° East 501 577 39,000  Level FlightAware ADS-B
Mon 04:23:45 PM 42.0360 -104.3370 82° East 501 577 39,000  Level FlightAware ADS-B
Mon 04:24:24 PM 42.0460 -104.2340 83° East 501 577 39,000  Level FlightAware ADS-B
Mon 04:25:01 PM 42.0560 -104.1370 82° East 501 577 39,000  Level FlightAware ADS-B
Mon 04:25:36 PM 42.0660 -104.0450 82° East 501 577 39,000  Level FlightAware ADS-B
Mon 04:26:11 PM 42.0760 -103.9530 82° East 501 577 39,000  Level FlightAware ADS-B
Mon 04:26:47 PM 42.0850 -103.8580 83° East 501 577 39,000  Level FlightAware ADS-B
Mon 04:27:45 PM 42.1080 -103.6080 83° East 498 573 39,000  Level FlightAware ADS-B
Mon 04:28:21 PM 42.1190 -103.5010 82° East 498 573 39,000  Level FlightAware ADS-B
Mon 04:28:57 PM 42.1290 -103.4070 82° East 498 573 39,000  Level FlightAware ADS-B
Mon 04:29:33 PM 42.1380 -103.3120 83° East 498 573 39,000  Level FlightAware ADS-B
Mon 04:30:02 PM 42.1490 -103.1780 84° East 496 571 39,000  Level FlightAware ADS-B
Mon 04:30:40 PM 42.1590 -103.0790 82° East 496 571 39,000  Level FlightAware ADS-B
Mon 04:31:16 PM 42.1690 -102.9850 82° East 496 571 39,000  Level FlightAware ADS-B
Mon 04:31:48 PM 42.1790 -102.8510 84° East 498 573 39,000  Level FlightAware ADS-B
Mon 04:32:24 PM 42.1890 -102.7410 83° East 499 574 39,000  Level FlightAware ADS-B
Mon 04:33:02 PM 42.1980 -102.6340 83° East 499 574 39,000  Level FlightAware ADS-B
Mon 04:33:38 PM 42.2070 -102.5400 83° East 499 574 39,000  Level FlightAware ADS-B
Mon 04:34:13 PM 42.2150 -102.4480 83° East 499 574 39,000  Level FlightAware ADS-B
Mon 04:34:42 PM 42.2260 -102.3150 84° East 503 579 39,000  Level FlightAware ADS-B
Mon 04:35:21 PM 42.2350 -102.2120 83° East 503 579 39,000  Level FlightAware ADS-B
Mon 04:35:58 PM 42.2440 -102.1140 83° East 503 579 39,000  Level FlightAware ADS-B
Mon 04:36:34 PM 42.2530 -102.0180 83° East 503 579 39,000  Level FlightAware ADS-B
Mon 04:37:10 PM 42.2610 -101.9230 83° East 503 579 39,000  Level FlightAware ADS-B
Mon 04:37:46 PM 42.2700 -101.8270 83° East 503 579 39,000  Level FlightAware ADS-B
Mon 04:38:22 PM 42.2790 -101.7320 83° East 503 579 39,000  Level FlightAware ADS-B
Mon 04:38:59 PM 42.2880 -101.6340 83° East 503 579 39,000  Level FlightAware ADS-B
Mon 04:39:38 PM 42.2970 -101.5300 83° East 503 579 39,000  Level FlightAware ADS-B
Mon 04:40:17 PM 42.3060 -101.4270 83° East 503 579 39,000  Level FlightAware ADS-B
Mon 04:40:54 PM 42.3150 -101.3280 83° East 503 579 39,000  Level FlightAware ADS-B
Mon 04:41:28 PM 42.3240 -101.2380 82° East 503 579 39,000  Level FlightAware ADS-B
Mon 04:42:05 PM 42.3320 -101.1400 84° East 503 579 39,000  Level FlightAware ADS-B
Mon 04:42:41 PM 42.3410 -101.0440 83° East 503 579 39,000  Level FlightAware ADS-B
Mon 04:43:17 PM 42.3500 -100.9490 83° East 503 579 39,000  Level FlightAware ADS-B
Mon 04:43:53 PM 42.3580 -100.8530 84° East 503 579 39,000  Level FlightAware ADS-B
Mon 04:44:29 PM 42.3670 -100.7570 83° East 503 579 39,000  Level FlightAware ADS-B
Mon 04:48:46 PM 42.4250 -99.6960 85° East 496 571 39,000  Level FlightAware ADS-B
Mon 04:49:50 PM 42.4390 -99.4950 85° East 496 571 39,000  Level FlightAware ADS-B
Mon 04:50:18 PM 42.4440 -99.4170 85° East 497 572 39,000  Level FlightAware ADS-B
Mon 04:50:58 PM 42.4520 -99.2870 85° East 499 574 39,000  Level FlightAware ADS-B
Mon 04:51:35 PM 42.4590 -99.1710 85° East 500 575 39,000  Level FlightAware ADS-B
Mon 04:52:11 PM 42.4660 -99.0580 85° East 500 575 39,000  Level FlightAware ADS-B
Mon 04:52:42 PM 42.4710 -98.9620 86° East 500 575 39,000  Level FlightAware ADS-B
Mon 04:53:18 PM 42.4770 -98.8600 85° East 501 577 39,000  Level FlightAware ADS-B
Mon 04:53:51 PM 42.4830 -98.7450 86° East 502 578 39,000  Level FlightAware ADS-B
Mon 04:54:30 PM 42.4900 -98.6280 85° East 502 578 39,000  Level FlightAware ADS-B
Mon 04:55:03 PM 42.4950 -98.5210 86° East 501 577 39,000  Level FlightAware ADS-B
Mon 04:55:38 PM 42.5010 -98.4130 86° East 502 578 39,000  Level FlightAware ADS-B
Mon 04:56:10 PM 42.5060 -98.3120 86° East 502 578 39,000  Level FlightAware ADS-B
Mon 04:56:44 PM 42.5120 -98.2040 86° East 504 580 39,000  Level FlightAware ADS-B
Mon 04:57:26 PM 42.5180 -98.0720 86° East 505 581 39,000  Level FlightAware ADS-B
Mon 04:57:57 PM 42.5230 -97.9760 86° East 505 581 39,000  Level FlightAware ADS-B
Mon 04:58:34 PM 42.5290 -97.8590 86° East 506 582 39,000  Level FlightAware ADS-B
Mon 04:59:08 PM 42.5340 -97.7490 86° East 505 581 39,000  Level FlightAware ADS-B
Mon 04:59:46 PM 42.5390 -97.6320 87° East 505 581 39,000  Level FlightAware ADS-B
Mon 05:00:16 PM 42.5430 -97.5380 87° East 505 581 39,000  Level FlightAware ADS-B
Mon 05:00:54 PM 42.5490 -97.4160 86° East 506 582 39,000  Level FlightAware ADS-B
Mon 05:01:29 PM 42.5530 -97.3060 87° East 507 583 39,000  Level FlightAware ADS-B
Mon 05:02:06 PM 42.5580 -97.1890 87° East 508 585 39,000  Level FlightAware ADS-B
Mon 05:02:37 PM 42.5620 -97.0900 87° East 508 585 39,000  Level FlightAware ADS-B
Mon 05:03:13 PM 42.5670 -96.9750 87° East 508 585 39,000  Level FlightAware ADS-B
Mon 05:03:47 PM 42.5710 -96.8650 87° East 509 586 39,000  Level FlightAware ADS-B
Mon 05:04:22 PM 42.5750 -96.7590 87° East 510 587 39,000  Level FlightAware ADS-B
Mon 05:04:59 PM 42.5790 -96.6350 87° East 511 588 39,000  Level FlightAware ADS-B
Mon 05:05:32 PM 42.5830 -96.5330 87° East 511 588 39,000  Level FlightAware ADS-B
Mon 05:05:52 PM 42.5849 -96.4684 88° East 511 588 39,000  Level FlightAware ADS-B
Mon 05:06:44 PM 42.5900 -96.3020 88° East 511 588 39,000  Level FlightAware ADS-B
Mon 05:07:25 PM 42.5944 -96.1737 87° East 512 589 39,000  Level FlightAware ADS-B
Mon 05:08:28 PM 42.6000 -95.9700 88° East 512 589 39,000  Level FlightAware ADS-B
Mon 05:08:50 PM 42.6021 -95.9020 88° East 512 589 39,000  Level FlightAware ADS-B
Mon 05:09:39 PM 42.6060 -95.7480 88° East 513 590 39,000  Level FlightAware ADS-B
Mon 05:10:21 PM 42.6100 -95.6051 88° East 514 592 39,000  Level FlightAware ADS-B
Mon 05:11:24 PM 42.6144 -95.4118 88° East 516 594 39,000  Level FlightAware ADS-B (LPVM)
Mon 05:11:34 PM 42.6120 -95.5150 268° West 515 593 39,000  Level FlightAware ADS-B
Mon 05:12:09 PM 42.6177 -95.2577 88° East 517 595 39,000  Level FlightAware ADS-B (LPVM)
Mon 05:12:41 PM 42.6200 -95.1540 88° East 517 595 39,000  Level FlightAware ADS-B
Mon 05:12:48 PM 42.6203 -95.1290 89° East 517 595 39,000  Level FlightAware ADS-B (LPVM)
Mon 05:13:21 PM 42.6223 -95.0225 88° East 516 594 39,000  Level FlightAware ADS-B (LPVM)
Mon 05:13:51 PM 42.6240 -94.9290 89° East 517 595 39,000  Level FlightAware ADS-B
Mon 05:14:03 PM 42.6246 -94.9022 88° East 516 594 39,000  Level FlightAware ADS-B (LPVM)
Mon 05:14:46 PM 42.6270 -94.7499 89° East 516 594 39,000  Level FlightAware ADS-B (LPVM)
Mon 05:15:05 PM 42.6280 -94.6886 89° East 516 594 39,000  Level FlightAware ADS-B
Mon 05:15:36 PM 42.6294 -94.5869 89° East 515 593 39,000  Level FlightAware ADS-B
Mon 05:16:12 PM 42.6310 -94.4720 89° East 516 594 39,000  Level FlightAware ADS-B
Mon 05:16:22 PM 42.6307 -94.4804 267° West 515 593 39,000  Level FlightAware ADS-B
Mon 05:17:21 PM 42.6323 -94.3609 89° East 516 594 39,000  Level FlightAware ADS-B
Mon 05:17:57 PM 42.6340 -94.1340 89° East 516 594 39,000  Level FlightAware ADS-B
Mon 05:18:20 PM 42.6342 -94.1834 270° West 516 594 39,000  Level FlightAware ADS-B
Mon 05:19:04 PM 42.6360 -93.9160 89° East 516 594 39,000  Level FlightAware ADS-B
Mon 05:19:18 PM 42.6362 -93.9343 271° West 516 594 39,000  Level FlightAware ADS-B
Mon 05:20:17 PM 42.6380 -93.6800 89° East 517 595 39,000  Level FlightAware ADS-B
Mon 05:20:46 PM 42.6380 -93.5880 90° East 517 595 39,000  Level FlightAware ADS-B
Mon 05:21:23 PM 42.6380 -93.4680 90° East 518 596 39,000  Level FlightAware ADS-B
Mon 05:22:01 PM 42.6390 -93.3420 89° East 518 596 39,000  Level FlightAware ADS-B
Mon 05:22:31 PM 42.6390 -93.2450 90° East 519 597 39,000  Level FlightAware ADS-B
Mon 05:23:08 PM 42.6390 -93.1240 90° East 520 598 39,000  Level FlightAware ADS-B
Mon 05:23:48 PM 42.6380 -92.9960 91° East 521 600 39,000  Level FlightAware ADS-B
Mon 05:24:29 PM 42.6380 -92.8610 90° East 522 601 39,000  Level FlightAware ADS-B
Mon 05:25:02 PM 42.6380 -92.7550 90° East 523 602 39,000  Level FlightAware ADS-B
Mon 05:25:38 PM 42.6370 -92.6380 91° East 523 602 39,000  Level FlightAware ADS-B
Mon 05:26:14 PM 42.6360 -92.5160 91° East 524 603 39,000  Level FlightAware ADS-B
Mon 05:26:47 PM 42.6352 -92.4079 91° East 525 604 39,000  Level FlightAware ADS-B (LPVM)
Mon 05:27:24 PM 42.6340 -92.2890 91° East 526 605 39,000  Level FlightAware ADS-B
Mon 05:27:59 PM 42.6330 -92.1770 91° East 527 606 39,000  Level FlightAware ADS-B
Mon 05:28:25 PM 42.6321 -92.0852 91° East 529 609 39,000  Level FlightAware ADS-B (LPVM)
Mon 05:29:08 PM 42.6300 -91.9440 91° East 530 610 39,000  Level FlightAware ADS-B
Mon 05:29:23 PM 42.6298 -91.8993 90° East 530 610 39,000  Level FlightAware ADS-B (LPVM)
Mon 05:29:57 PM 42.6282 -91.7819 91° East 531 611 39,000  Level FlightAware ADS-B (LPVM)
Mon 05:30:34 PM 42.6266 -91.6665 91° East 532 612 39,000  Level FlightAware ADS-B (LPVM)
Mon 05:31:28 PM 42.6235 -91.4815 91° East 532 612 39,000  Level FlightAware ADS-B (LPVM)
Mon 05:32:07 PM 42.6215 -91.3645 91° East 532 612 39,000  Level FlightAware ADS-B (LPVM)
Mon 05:32:48 PM 42.6189 -91.2176 91° East 533 613 39,000  Level FlightAware ADS-B (LPVM)
Mon 05:33:20 PM 42.6160 -91.1050 92° East 533 613 39,000  Level FlightAware ADS-B
Mon 05:33:48 PM 42.6150 -91.0130 91° East 532 612 39,000  Level FlightAware ADS-B
Mon 05:34:05 PM 42.6134 -90.9558 92° East 533 613 39,000  Level FlightAware ADS-B (LPVM)
Mon 05:34:43 PM 42.6106 -90.8264 92° East 534 615 39,000  Level FlightAware ADS-B (LPVM)
Mon 05:35:28 PM 42.6070 -90.6772 92° East 533 613 39,000  Level FlightAware ADS-B (LPVM)
Mon 05:36:09 PM 42.6040 -90.5440 92° East 534 615 39,000  Level FlightAware ADS-B
Mon 05:36:50 PM 42.6000 -90.4080 92° East 534 615 39,000  Level FlightAware ADS-B
Mon 05:37:29 PM 42.5970 -90.2760 92° East 534 615 39,000  Level FlightAware ADS-B
Mon 05:38:01 PM 42.5940 -90.1660 92° East 534 615 39,000  Level FlightAware ADS-B
Mon 05:38:38 PM 42.5900 -90.0420 92° East 533 613 39,000  Level FlightAware ADS-B
Mon 05:39:13 PM 42.5870 -89.9280 92° East 533 613 39,000  Level FlightAware ADS-B
Mon 05:39:45 PM 42.5840 -89.8200 92° East 532 612 39,000  Level FlightAware ADS-B
Mon 05:40:24 PM 42.5790 -89.6900 93° East 531 611 39,000  Level FlightAware ADS-B
Mon 05:40:56 PM 42.5760 -89.5840 92° East 531 611 39,000  Level FlightAware ADS-B
Mon 05:41:31 PM 42.5720 -89.4660 93° East 530 610 39,000  Level FlightAware ADS-B
Mon 05:42:08 PM 42.5680 -89.3450 93° East 531 611 39,000  Level FlightAware ADS-B
Mon 05:42:40 PM 42.5640 -89.2380 93° East 531 611 39,000  Level FlightAware ADS-B
Mon 05:43:17 PM 42.5600 -89.1140 92° East 531 611 39,000  Level FlightAware ADS-B
Mon 05:43:54 PM 42.5550 -88.9940 93° East 532 612 39,000  Level FlightAware ADS-B
Mon 05:44:25 PM 42.5510 -88.8920 93° East 533 613 39,000  Level FlightAware ADS-B
Mon 05:45:02 PM 42.5470 -88.7680 92° East 534 615 39,000  Level FlightAware ADS-B
Mon 05:45:39 PM 42.5420 -88.6440 93° East 534 615 39,000  Level FlightAware ADS-B
Mon 05:46:11 PM 42.5370 -88.5360 94° East 534 615 39,000  Level FlightAware ADS-B
Mon 05:46:45 PM 42.5330 -88.4220 93° East 535 616 39,000  Level FlightAware ADS-B
Mon 05:47:22 PM 42.5270 -88.2970 94° East 536 617 39,000  Level FlightAware ADS-B
Mon 05:47:59 PM 42.5220 -88.1770 93° East 536 617 39,000  Level FlightAware ADS-B
Mon 05:48:30 PM 42.5180 -88.0720 93° East 536 617 39,000  Level FlightAware ADS-B
Mon 05:49:05 PM 42.5150 -87.9560 92° East 538 619 39,000  Level FlightAware ADS-B
Mon 05:49:41 PM 42.5140 -87.8340 91° East 539 620 39,000  Level FlightAware ADS-B
Mon 05:50:18 PM 42.5140 -87.7080 90° East 539 620 39,000  Level FlightAware ADS-B
Mon 05:50:52 PM 42.5130 -87.5940 91° East 539 620 39,000  Level FlightAware ADS-B
Mon 05:51:25 PM 42.5130 -87.4850 90° East 540 621 39,000  Level FlightAware ADS-B
Mon 05:52:03 PM 42.5130 -87.3590 90° East 540 621 39,000  Level FlightAware ADS-B
Mon 05:52:34 PM 42.5120 -87.2510 91° East 540 621 39,000  Level FlightAware ADS-B
Mon 05:53:10 PM 42.5110 -87.1290 91° East 540 621 39,000  Level FlightAware ADS-B
Mon 05:53:48 PM 42.5100 -87.0030 91° East 540 621 39,000  Level FlightAware ADS-B
Mon 05:54:19 PM 42.5090 -86.9030 91° East 540 621 39,000  Level FlightAware ADS-B
Mon 05:54:56 PM 42.5080 -86.7750 91° East 541 623 39,000  Level FlightAware ADS-B
Mon 05:55:30 PM 42.5070 -86.6590 91° East 541 623 39,000  Level FlightAware ADS-B
Mon 05:56:08 PM 42.5060 -86.5340 91° East 542 624 39,000  Level FlightAware ADS-B
Mon 05:56:40 PM 42.5040 -86.4240 91° East 542 624 39,000  Level FlightAware ADS-B
Mon 05:57:19 PM 42.5020 -86.2870 91° East 542 624 39,000  Level FlightAware ADS-B
Mon 05:57:51 PM 42.5010 -86.1810 91° East 542 624 39,000  Level FlightAware ADS-B
Mon 05:58:26 PM 42.4990 -86.0620 91° East 542 624 39,000  Level FlightAware ADS-B
Mon 05:59:02 PM 42.4970 -85.9370 91° East 542 624 39,000  Level FlightAware ADS-B
Mon 05:59:39 PM 42.4950 -85.8110 91° East 540 621 39,000  Level FlightAware ADS-B
Mon 06:00:10 PM 42.4940 -85.7090 91° East 539 620 39,000  Level FlightAware ADS-B
Mon 06:00:43 PM 42.4920 -85.6000 91° East 539 620 39,000  Level FlightAware ADS-B
Mon 06:01:18 PM 42.4890 -85.4810 92° East 540 621 39,000  Level FlightAware ADS-B
Mon 06:01:54 PM 42.4870 -85.3650 91° East 539 620 39,000  Level FlightAware ADS-B
Mon 06:02:28 PM 42.4850 -85.2460 91° East 539 620 39,000  Level FlightAware ADS-B
Mon 06:03:01 PM 42.4820 -85.1390 92° East 539 620 39,000  Level FlightAware ADS-B
Mon 06:03:38 PM 42.4790 -85.0080 92° East 539 620 39,000  Level FlightAware ADS-B
Mon 06:04:11 PM 42.4770 -84.9060 91° East 540 621 39,000  Level FlightAware ADS-B
Mon 06:04:50 PM 42.4730 -84.7650 92° East 540 621 39,000  Level FlightAware ADS-B
Mon 06:05:20 PM 42.4710 -84.6690 92° East 541 623 39,000  Level FlightAware ADS-B
Mon 06:05:59 PM 42.4680 -84.5360 92° East 542 624 39,000  Level FlightAware ADS-B
Mon 06:06:33 PM 42.4650 -84.4250 92° East 544 626 39,000  Level FlightAware ADS-B
Mon 06:07:09 PM 42.4610 -84.2930 92° East 545 627 39,000  Level FlightAware ADS-B
Mon 06:07:50 PM 42.4570 -84.1580 92° East 547 629 39,000  Level FlightAware ADS-B
Mon 06:08:26 PM 42.4530 -84.0400 93° East 547 629 39,000  Level FlightAware ADS-B
Mon 06:09:02 PM 42.4490 -83.9190 93° East 547 629 39,000  Level FlightAware ADS-B
Mon 06:09:33 PM 42.4460 -83.8040 92° East 548 631 39,000  Level FlightAware ADS-B
Mon 06:10:10 PM 42.4420 -83.6760 92° East 548 631 39,000  Level FlightAware ADS-B
Mon 06:10:46 PM 42.4370 -83.5540 93° East 548 631 39,000  Level FlightAware ADS-B
Mon 06:11:08 PM 42.4350 -83.4910 92° East 548 631 39,000  Level FlightAware ADS-B
Mon 06:11:58 PM 42.4280 -83.3130 93° East 548 631 39,000  Level FlightAware ADS-B
Mon 06:12:31 PM 42.4240 -83.1970 93° East 548 631 39,000  Level FlightAware ADS-B
Mon 06:13:01 PM 42.4200 -83.0940 93° East 547 629 39,000  Level FlightAware ADS-B
Mon 06:13:40 PM 42.4150 -82.9580 93° East 547 629 39,000  Level FlightAware ADS-B
Mon 06:14:17 PM 42.4100 -82.8390 93° East 546 628 39,000  Level FlightAware ADS-B
Mon 06:14:52 PM 42.4050 -82.7190 93° East 547 629 39,000  Level FlightAware ADS-B
Mon 06:15:24 PM 42.4000 -82.6080 93° East 548 631 39,000  Level FlightAware ADS-B
Mon 06:16:01 PM 42.3960 -82.4790 92° East 548 631 39,000  Level FlightAware ADS-B
Mon 06:16:36 PM 42.3920 -82.3570 93° East 548 631 39,000  Level FlightAware ADS-B
Mon 06:17:06 PM 42.3880 -82.2560 93° East 548 631 39,000  Level FlightAware ADS-B
Mon 06:17:45 PM 42.3830 -82.1270 93° East 548 631 39,000  Level FlightAware ADS-B
Mon 06:18:22 PM 42.3780 -81.9920 93° East 548 631 39,000  Level FlightAware ADS-B
Mon 06:18:58 PM 42.3730 -81.8760 93° East 548 631 39,000  Level FlightAware ADS-B
Mon 06:19:30 PM 42.3680 -81.7610 93° East 548 631 39,000  Level FlightAware ADS-B
Mon 06:20:05 PM 42.3630 -81.6470 93° East 548 631 39,000  Level FlightAware ADS-B
Mon 06:20:39 PM 42.3580 -81.5280 93° East 548 631 39,000  Level FlightAware ADS-B
Mon 06:21:12 PM 42.3530 -81.4170 93° East 549 632 39,000  Level FlightAware ADS-B
Mon 06:21:51 PM 42.3470 -81.2830 93° East 548 631 39,000  Level FlightAware ADS-B
Mon 06:22:27 PM 42.3410 -81.1590 94° East 547 629 39,000  Level FlightAware ADS-B
Mon 06:22:59 PM 42.3350 -81.0490 94° East 547 629 39,000  Level FlightAware ADS-B
Mon 06:23:35 PM 42.3290 -80.9240 94° East 547 629 39,000  Level FlightAware ADS-B
Mon 06:24:12 PM 42.3230 -80.7990 94° East 546 628 39,000  Level FlightAware ADS-B
Mon 06:24:43 PM 42.3130 -80.6940 97° East 542 624 39,000  Level FlightAware ADS-B
Mon 06:25:16 PM 42.3010 -80.5930 99° East 541 623 39,000  Level FlightAware ADS-B
Mon 06:25:56 PM 42.2820 -80.4550 100° East 540 621 39,000  Level FlightAware ADS-B
Mon 06:26:31 PM 42.2670 -80.3420 100° East 541 623 39,000  Level FlightAware ADS-B
Mon 06:27:06 PM 42.2500 -80.2190 101° East 541 623 39,000  Level FlightAware ADS-B
Mon 06:27:39 PM 42.2360 -80.1180 101° East 543 625 39,000  Level FlightAware ADS-B
Mon 06:28:15 PM 42.2200 -80.0000 100° East 543 625 39,000  Level FlightAware ADS-B
Mon 06:28:48 PM 42.2040 -79.8820 100° East 544 626 39,000  Level FlightAware ADS-B
Mon 06:29:25 PM 42.1870 -79.7620 101° East 545 627 39,000  Level FlightAware ADS-B
Mon 06:30:02 PM 42.1690 -79.6350 101° East 545 627 39,000  Level FlightAware ADS-B
Mon 06:30:30 PM 42.1560 -79.5430 101° East 546 628 39,000  Level FlightAware ADS-B
Mon 06:31:06 PM 42.1380 -79.4220 101° East 548 631 39,000  Level FlightAware ADS-B
Mon 06:31:42 PM 42.1210 -79.3020 101° East 548 631 39,000  Level FlightAware ADS-B
Mon 06:32:13 PM 42.1060 -79.2040 102° East 547 629 39,000  Level FlightAware ADS-B
Mon 06:32:49 PM 42.0880 -79.0780 101° East 547 629 39,000  Level FlightAware ADS-B
Mon 06:33:25 PM 42.0700 -78.9590 101° East 549 632 39,000  Level FlightAware ADS-B
Mon 06:34:01 PM 42.0520 -78.8380 101° East 551 634 39,000  Level FlightAware ADS-B
Mon 06:34:31 PM 42.0360 -78.7360 102° East 551 634 39,000  Level FlightAware ADS-B
Mon 06:35:10 PM 42.0170 -78.6060 101° East 551 634 39,000  Level FlightAware ADS-B
Mon 06:35:45 PM 41.9990 -78.4910 102° East 550 633 39,000  Level FlightAware ADS-B
Mon 06:36:22 PM 41.9800 -78.3700 102° East 550 633 39,000  Level FlightAware ADS-B
Mon 06:36:54 PM 41.9630 -78.2610 102° East 550 633 39,000  Level FlightAware ADS-B
Mon 06:37:31 PM 41.9430 -78.1380 102° East 551 634 39,000  Level FlightAware ADS-B
Mon 06:38:04 PM 41.9260 -78.0300 102° East 551 634 39,000  Level FlightAware ADS-B
Mon 06:38:42 PM 41.9050 -77.8980 102° East 549 632 39,000  Level FlightAware ADS-B
Mon 06:39:14 PM 41.8840 -77.7970 106° East 545 627 39,000  Level FlightAware ADS-B
Mon 06:39:48 PM 41.8550 -77.6870 109° East 543 625 39,000  Level FlightAware ADS-B
Mon 06:40:26 PM 41.8230 -77.5660 110° East 543 625 39,000  Level FlightAware ADS-B
Mon 06:41:00 PM 41.7940 -77.4580 110° East 544 626 39,000  Level FlightAware ADS-B
Mon 06:41:36 PM 41.7630 -77.3440 110° East 544 626 39,000  Level FlightAware ADS-B
Mon 06:42:10 PM 41.7340 -77.2360 110° East 544 626 39,000 -250 Level FlightAware ADS-B
Mon 06:42:48 PM 41.7020 -77.1170 110° East 542 624 38,700 -769 Descending FlightAware ADS-B
Mon 06:43:28 PM 41.6710 -77.0040 110° East 543 625 38,000 -1,040 Descending FlightAware ADS-B
Mon 06:44:03 PM 41.6370 -76.8810 110° East 542 624 37,400 -1,167 Descending FlightAware ADS-B
Mon 06:44:40 PM 41.6050 -76.7650 110° East 544 626 36,600 -1,147 Descending FlightAware ADS-B
Mon 06:45:11 PM 41.5790 -76.6710 110° East 544 626 36,100 -971 Descending FlightAware ADS-B
Mon 06:45:48 PM 41.5450 -76.5510 111° Southeast 545 627 35,500 -986 Descending FlightAware ADS-B
Mon 06:46:24 PM 41.5130 -76.4350 110° East 543 625 34,900 -896 Descending FlightAware ADS-B
Mon 06:46:55 PM 41.4880 -76.3460 111° Southeast 538 619 34,500 -783 Descending FlightAware ADS-B
Mon 06:47:33 PM 41.4550 -76.2280 110° East 533 613 34,000 -740 Descending FlightAware ADS-B
Mon 06:48:08 PM 41.4240 -76.1210 111° Southeast 527 606 33,600 -917 Descending FlightAware ADS-B
Mon 06:48:45 PM 41.3920 -76.0100 111° Southeast 529 609 32,900 -1,200 Descending FlightAware ADS-B
Mon 06:49:18 PM 41.3620 -75.9040 111° Southeast 527 606 32,200 -2,000 Descending FlightAware ADS-B
Mon 06:49:54 PM 41.3310 -75.7950 111° Southeast 526 605 30,600 -2,735 Descending FlightAware ADS-B
Mon 06:50:26 PM 41.3030 -75.7010 112° Southeast 519 597 29,100 -3,000 Descending FlightAware ADS-B
Mon 06:51:04 PM 41.2670 -75.5900 113° Southeast 515 593 27,100 -2,789 Descending FlightAware ADS-B
Mon 06:51:37 PM 41.2360 -75.4990 114° Southeast 503 579 25,800 -2,486 Descending FlightAware ADS-B
Mon 06:52:14 PM 41.2010 -75.3950 114° Southeast 488 562 24,200 -2,250 Descending FlightAware ADS-B
Mon 06:52:49 PM 41.1690 -75.3020 115° Southeast 480 552 23,100 -1,059 Descending FlightAware ADS-B
Mon 06:53:22 PM 41.1390 -75.2150 115° Southeast 479 551 23,000 -90 Descending FlightAware ADS-B
Mon 06:53:56 PM 41.1070 -75.1230 115° Southeast 488 562 23,000  Level FlightAware ADS-B
Mon 06:54:33 PM 41.0720 -75.0200 114° Southeast 490 564 23,000 -158 Level FlightAware ADS-B
Mon 06:55:12 PM 41.0360 -74.9170 115° Southeast 494 568 22,800 -676 Descending FlightAware ADS-B
Mon 06:55:44 PM 41.0140 -74.8230 107° East 489 563 22,200 -1,031 Descending FlightAware ADS-B
Mon 06:56:16 PM 41.0020 -74.7330 100° East 486 559 21,700 -971 Descending FlightAware ADS-B
Mon 06:56:52 PM 40.9900 -74.6240 98° East 480 552 21,100 -943 Descending FlightAware ADS-B
Mon 06:57:26 PM 40.9790 -74.5230 98° East 473 544 20,600 -943 Descending FlightAware ADS-B
Mon 06:58:02 PM 40.9680 -74.4250 98° East 472 543 20,000 -1,135 Descending FlightAware ADS-B
Mon 06:58:40 PM 40.9550 -74.3110 99° East 458 527 19,200 -531 Descending FlightAware ADS-B
Mon 06:59:06 PM 40.9468 -74.2417 99° East 19,000 -160 Descending FlightAware ADS-B
Mon 06:59:55 PM 40.9270 -74.1243 103° East 398 458 19,000  Level FlightAware ADS-B
Mon 07:00:00 PM 40.9235 -74.1139 114° Southeast 368 423 19,000  Level FlightAware ADS-B
Mon 07:00:09 PM 40.9171 -74.0978 118° Southeast 362 417 19,000 -154 Level FlightAware ADS-B
Mon 07:00:39 PM 40.8896 -74.0413 123° Southeast 358 412 18,900 -885 Descending FlightAware ADS-B
Mon 07:01:10 PM 40.8614 -73.9852 124° Southeast 355 409 18,100 -1,600 Descending FlightAware ADS-B
Mon 07:01:54 PM 40.8220 -73.9070 124° Southeast 352 405 16,900 -1,615 Descending FlightAware ADS-B
Mon 07:02:02 PM 40.8152 -73.8928 122° Southeast 350 403 16,700 -1,385 Descending FlightAware ADS-B (KSNC)
Mon 07:02:33 PM 40.7858 -73.8401 126° Southeast 353 406 16,000 -1,692 Descending FlightAware ADS-B
Mon 07:02:41 PM 40.7809 -73.8322 130° Southeast 338 389 15,600 -1,674 Descending FlightAware ADS-B (KSNC)
Mon 07:03:16 PM 40.7504 -73.7840 130° Southeast 329 379 14,800 -1,683 Descending FlightAware ADS-B (KSNC)
Mon 07:04:03 PM 40.6980 -73.7110 133° Southeast 314 361 13,300 -2,172 Descending FlightAware ADS-B
Mon 07:04:14 PM 40.6800 -73.6990 153° Southeast 304 350 12,700 -2,426 Descending FlightAware ADS-B
Mon 07:04:50 PM 40.6330 -73.6770 160° South 297 342 11,400 -2,083 Descending FlightAware ADS-B
Mon 07:05:26 PM 40.5870 -73.6570 162° South 287 330 10,200 -2,040 Descending FlightAware ADS-B
Mon 07:05:40 PM 40.5690 -73.6540 173° South 279 321 9,700 -2,053 Descending FlightAware ADS-B
Mon 07:06:04 PM 40.5410 -73.6550 182° South 273 314 8,900 -2,000 Descending FlightAware ADS-B
Mon 07:06:28 PM 40.5090 -73.6580 184° South 272 313 8,100 -1,395 Descending FlightAware ADS-B
Mon 07:06:47 PM 40.4860 -73.6640 191° South 269 310 7,900 -293 Descending FlightAware ADS-B
Mon 07:07:09 PM 40.4610 -73.6790 205° Southwest 267 307 7,900 -409 Level FlightAware ADS-B
Mon 07:07:31 PM 40.4370 -73.6940 205° Southwest 262 302 7,600 -1,200 Descending FlightAware ADS-B
Mon 07:07:44 PM 40.4220 -73.7070 213° Southwest 260 299 7,200 -1,909 Descending FlightAware ADS-B
Mon 07:07:53 PM 40.4150 -73.7180 230° Southwest 259 298 6,900 -1,636 Descending FlightAware ADS-B
Mon 07:08:06 PM 40.4070 -73.7350 238° Southwest 258 297 6,600 -1,579 Descending FlightAware ADS-B
Mon 07:08:12 PM 40.4050 -73.7450 255° West 258 297 6,400 -1,895 Descending FlightAware ADS-B
Mon 07:08:25 PM 40.4020 -73.7640 258° West 258 297 6,000 -1,784 Descending FlightAware ADS-B
Mon 07:08:49 PM 40.3960 -73.8010 258° West 258 297 5,300 -1,953 Descending FlightAware ADS-B
Mon 07:09:08 PM 40.3930 -73.8300 262° West 260 299 4,600 -1,692 Descending FlightAware ADS-B
Mon 07:09:28 PM 40.3980 -73.8580 283° West 256 295 4,200 -1,200 Descending FlightAware ADS-B
Mon 07:09:43 PM 40.4070 -73.8800 298° West 248 285 3,900 -514 Descending FlightAware ADS-B
Mon 07:10:03 PM 40.4160 -73.9020 298° West 230 265 3,900 -162 Level FlightAware ADS-B
Mon 07:10:20 PM 40.4250 -73.9240 298° West 214 246 3,800 -706 Descending FlightAware ADS-B
Mon 07:10:37 PM 40.4350 -73.9420 306° West 216 249 3,500 -1,077 Descending FlightAware ADS-B
Mon 07:10:59 PM 40.4530 -73.9610 321° Northwest 220 253 3,100 -679 Descending FlightAware ADS-B
Mon 07:11:30 PM 40.4790 -73.9740 339° North 230 265 2,900 -279 Descending FlightAware ADS-B
Mon 07:11:42 PM 40.4940 -73.9760 354° North 231 266 2,900  Level FlightAware ADS-B
Mon 07:11:55 PM 40.5090 -73.9760 360° North 230 265 2,900  Level FlightAware ADS-B
Mon 07:12:07 PM 40.5210 -73.9760 360° North 232 267 2,900 -162 Level FlightAware ADS-B
Mon 07:12:32 PM 40.5450 -73.9630 22° Northeast 228 262 2,800 -571 Descending FlightAware ADS-B
Mon 07:12:49 PM 40.5610 -73.9490 34° Northeast 224 258 2,500 -900 Descending FlightAware ADS-B
Mon 07:13:12 PM 40.5790 -73.9320 36° Northeast 216 249 2,200 -873 Descending FlightAware ADS-B
Mon 07:13:44 PM 40.6080 -73.9080 32° Northeast 219 252 1,700 -923 Descending FlightAware ADS-B
Mon 07:14:04 PM 40.6240 -73.8940 34° Northeast 218 251 1,400 -750 Descending FlightAware ADS-B
Mon 07:14:24 PM 40.6420 -73.8810 29° Northeast 202 232 1,200 -686 Descending FlightAware ADS-B
Mon 07:14:39 PM 40.6530 -73.8730 29° Northeast 191 220 1,000 -706 Descending FlightAware ADS-B
Mon 07:14:58 PM 40.6660 -73.8630 30° Northeast 169 194 800 -462 Descending FlightAware ADS-B
Mon 07:15:05 PM 40.6720 -73.8580 32° Northeast 159 183 800 -429 Level FlightAware ADS-B
Mon 07:15:12 PM 40.6760 -73.8530 43° Northeast 157 181 700 -783 Descending FlightAware ADS-B
Mon 07:15:28 PM 40.6810 -73.8420 59° Northeast 149 171 500 -500 Descending FlightAware ADS-B
Mon 07:15:36 PM 40.6830 -73.8360 66° East 144 166 500 -419 Level FlightAware ADS-B
Mon 07:16:11 PM 40.6800 -73.8070 98° East 129 148 200 -514 Descending FlightAware ADS-B
Mon 07:16:30 PM 40.6740 -73.7930 119° Southeast 130 150 -632 Descending FlightAware ADS-B
Mon 07:16:41 PM 40.6710 -73.7870 123° Southeast 128 147  Level FlightAware ADS-B

Login

Don't have an account? Register now (free) for customized features, flight alerts, and more!